Time;durP1;ratioP1;P1;durP2;ratioP2;P2;SDS_P1;SDS_P2;PMS_P1;PMS_P2;Temp;Humidity;BMP_temperature;BMP_pressure;BME280_temperature;BME280_humidity;BME280_pressure;Samples;Min_cycle;Max_cycle;Signal;HPM_P1;HPM_P2
2023/04/14 00:03:59;;;;;;;41.80;29.10;;;;;;;8.81;80.33;97659.13;437290;1251;107199;-41
2023/04/14 00:14:07;;;;;;;36.20;23.90;;;;;;;8.62;80.12;97655.59;437325;1251;98830;-41
2023/04/14 00:24:14;;;;;;;31.90;22.00;;;;;;;8.49;80.32;97646.77;437184;1251;108394;-41
2023/04/14 00:34:21;;;;;;;31.00;22.30;;;;;;;8.59;80.70;97640.58;437194;1251;99238;-40
2023/04/14 00:44:28;;;;;;;30.30;19.40;;;;;;;8.64;80.73;97632.42;437229;1247;110735;-40
2023/04/14 00:54:37;;;;;;;34.60;21.40;;;;;;;8.62;80.75;97624.13;437314;1251;108089;-40
2023/04/14 01:04:43;;;;;;;;;;;;;;;8.65;80.81;97620.11;437239;1251;98011;-41
2023/04/14 01:14:58;;;;;;;29.20;20.50;;;;;;;8.60;81.05;97614.52;437169;1251;108394;-41
2023/04/14 01:25:38;;;;;;;33.80;23.70;;;;;;;8.58;81.25;97612.11;437425;1248;99241;-40
2023/04/14 01:35:45;;;;;;;38.60;25.20;;;;;;;8.51;81.26;97605.46;435442;1252;111734;-41
2023/04/14 01:45:56;;;;;;;37.50;23.70;;;;;;;8.50;81.31;97611.48;435798;1253;107554;-41
2023/04/14 01:56:05;;;;;;;37.50;24.80;;;;;;;8.46;81.32;97607.05;435869;1253;99282;-42
2023/04/14 02:06:12;;;;;;;34.10;25.60;;;;;;;8.51;81.62;97589.39;435974;1249;108739;-42
2023/04/14 02:16:20;;;;;;;32.80;23.40;;;;;;;8.54;81.80;97592.91;435887;1250;99208;-41
2023/04/14 02:26:31;;;;;;;35.70;24.60;;;;;;;8.60;81.81;97596.85;436032;1253;110255;-40
2023/04/14 02:36:36;;;;;;;40.60;27.00;;;;;;;8.43;81.57;97583.09;435959;1250;107721;-41
2023/04/14 02:46:49;;;;;;;39.90;24.90;;;;;;;8.33;81.82;97579.42;435919;1251;99240;-40
2023/04/14 03:07:03;;;;;;;38.50;23.80;;;;;;;8.23;81.90;97584.88;435659;1251;98329;-40
2023/04/14 03:17:13;;;;;;;41.10;25.00;;;;;;;8.28;82.19;97581.17;435963;1251;110667;-41
2023/04/14 03:37:36;;;;;;;46.00;29.90;;;;;;;8.31;82.35;97556.20;436177;1248;99256;-41
2023/04/14 03:47:43;;;;;;;47.70;28.70;;;;;;;8.13;82.32;97549.49;435750;1253;455521;-40
2023/04/14 03:57:52;;;;;;;43.70;27.40;;;;;;;8.03;82.41;97557.96;435878;1253;99138;-40
2023/04/14 04:18:08;;;;;;;43.40;28.40;;;;;;;8.13;82.71;97539.91;435820;1248;107773;-41
2023/04/14 04:28:16;;;;;;;48.90;30.00;;;;;;;8.22;82.73;97539.77;435733;1253;99252;-41
2023/04/14 04:38:24;;;;;;;45.90;30.90;;;;;;;8.28;82.66;97532.73;435711;1248;108560;-40
2023/04/14 04:48:30;;;;;;;54.40;35.20;;;;;;;8.21;82.91;97528.95;435872;1253;98837;-40
2023/04/14 04:58:37;;;;;;;55.80;34.50;;;;;;;7.93;83.71;97540.13;435748;1253;111825;-41
2023/04/14 05:08:44;;;;;;;59.10;35.20;;;;;;;7.88;83.96;97552.69;435669;1251;109477;-41
2023/04/14 05:18:52;;;;;;;66.70;39.80;;;;;;;7.82;85.18;97557.41;435741;1253;99236;-40
2023/04/14 05:28:59;;;;;;;58.30;35.80;;;;;;;7.69;86.09;97559.31;435760;1248;108207;-41
2023/04/14 05:39:07;;;;;;;57.00;33.30;;;;;;;7.78;86.28;97551.13;435907;1251;99321;-40
2023/04/14 05:49:14;;;;;;;56.40;31.10;;;;;;;7.86;86.74;97549.18;435656;1254;112936;-40
2023/04/14 05:59:21;;;;;;;53.60;33.20;;;;;;;7.94;87.30;97539.77;435955;1250;107881;-41
2023/04/14 06:09:28;;;;;;;60.00;32.00;;;;;;;8.15;87.32;97523.94;435722;1253;99212;-41
2023/04/14 06:19:36;;;;;;;64.80;34.70;;;;;;;8.41;87.84;97505.98;435625;1253;112013;-40
2023/04/14 06:29:43;;;;;;;60.60;35.80;;;;;;;8.88;87.77;97496.00;435612;1253;99260;-42
2023/04/14 06:39:50;;;;;;;56.10;33.50;;;;;;;9.30;87.74;97481.69;435643;1255;110373;-40
2023/04/14 06:49:57;;;;;;;59.60;36.70;;;;;;;9.99;87.86;97469.05;435570;1249;108026;-40
2023/04/14 07:10:11;;;;;;;53.10;33.10;;;;;;;11.13;86.14;97454.06;435690;1253;107593;-39
2023/04/14 07:20:16;;;;;;;53.90;34.10;;;;;;;11.49;85.79;97452.95;436034;1250;99269;-42
2023/04/14 07:30:22;;;;;;;51.70;33.60;;;;;;;12.02;84.58;97458.27;436138;1253;111187;-41
2023/04/14 07:40:29;;;;;;;50.60;30.80;;;;;;;11.48;82.75;97467.82;435913;1250;109326;-41
2023/04/14 07:50:36;;;;;;;52.80;30.80;;;;;;;11.46;83.12;97467.14;435836;1253;99204;-40
2023/04/14 08:00:45;;;;;;;48.20;30.80;;;;;;;11.65;82.29;97455.30;435816;1249;107823;-41
2023/04/14 08:10:52;;;;;;;39.90;28.10;;;;;;;12.47;81.07;97451.69;435757;1253;99362;-41
2023/04/14 08:20:59;;;;;;;37.10;24.10;;;;;;;13.07;79.26;97449.63;435716;1252;112356;-41
2023/04/14 08:31:06;;;;;;;37.60;23.70;;;;;;;13.82;78.35;97446.57;435769;1249;108753;-40
2023/04/14 08:51:30;;;;;;;22.60;16.70;;;;;;;14.70;74.79;97432.62;435610;1250;109123;-41
2023/04/14 09:01:39;;;;;;;18.40;12.60;;;;;;;14.80;70.63;97418.06;435569;1249;99263;-40
2023/04/14 09:11:47;;;;;;;12.80;9.60;;;;;;;15.03;68.99;97406.09;435710;1250;110549;-40
2023/04/14 09:21:54;;;;;;;12.50;8.90;;;;;;;15.70;66.52;97404.27;435590;1253;108200;-41
2023/04/14 09:32:03;;;;;;;11.40;5.60;;;;;;;16.35;60.78;97392.13;435650;1251;98807;-43
2023/04/14 09:42:10;;;;;;;6.00;5.20;;;;;;;16.57;56.10;97383.36;435771;1253;108549;-41
2023/04/14 09:52:17;;;;;;;5.80;4.80;;;;;;;16.88;53.19;97377.97;435520;1250;99311;-40
2023/04/14 10:02:25;;;;;;;7.00;2.70;;;;;;;17.23;51.75;97371.38;435733;1249;111720;-42
2023/04/14 10:12:34;;;;;;;6.30;3.70;;;;;;;17.06;48.98;97370.47;435670;1250;108478;-43
2023/04/14 10:22:42;;;;;;;5.10;4.10;;;;;;;17.29;49.33;97373.91;435691;1250;99211;-42
2023/04/14 10:32:50;;;;;;;8.90;3.90;;;;;;;17.13;48.01;97360.64;435652;1252;107705;-41
2023/04/14 10:42:58;;;;;;;7.30;4.60;;;;;;;17.25;47.40;97353.27;435658;1253;99893;-42
2023/04/14 10:53:08;;;;;;;16.50;4.20;;;;;;;17.60;45.92;97357.77;435955;1253;111613;-41
2023/04/14 11:03:19;;;;;;;15.50;5.00;;;;;;;17.65;43.71;97335.13;435881;1251;108577;-41
2023/04/14 11:13:26;;;;;;;8.70;4.20;;;;;;;17.63;43.13;97339.14;435889;1250;99241;-41
2023/04/14 11:23:35;;;;;;;6.50;4.50;;;;;;;17.56;43.58;97321.45;435918;1253;109277;-40
2023/04/14 11:33:41;;;;;;;10.30;4.40;;;;;;;17.64;42.78;97314.62;435943;1251;99868;-41
2023/04/14 11:43:49;;;;;;;14.60;6.90;;;;;;;17.63;43.42;97311.55;435961;1249;110223;-41
2023/04/14 12:04:03;;;;;;;11.60;5.60;;;;;;;17.75;43.67;97297.90;435967;1250;98014;-42
2023/04/14 12:14:09;;;;;;;8.00;5.70;;;;;;;17.65;43.70;97286.92;435765;1253;108159;-41
2023/04/14 12:24:17;;;;;;;6.40;4.70;;;;;;;17.66;44.01;97277.59;435716;1249;99241;-40
2023/04/14 12:34:25;;;;;;;6.00;4.40;;;;;;;17.80;43.11;97275.41;435755;1253;112893;-40
2023/04/14 12:44:32;;;;;;;8.10;4.80;;;;;;;17.77;42.82;97270.36;435725;1253;108698;-41
2023/04/14 13:04:57;;;;;;;5.50;4.30;;;;;;;17.86;42.96;97259.70;435793;1253;108077;-40
2023/04/14 13:15:05;;;;;;;9.70;4.30;;;;;;;18.03;43.30;97246.22;435754;1251;99237;-40
2023/04/14 13:25:14;;;;;;;6.10;4.10;;;;;;;17.86;42.13;97233.67;435826;1253;110459;-42
2023/04/14 13:35:21;;;;;;;8.30;4.80;;;;;;;17.61;42.04;97222.21;435712;1253;108706;-42
2023/04/14 13:45:27;;;;;;;8.10;4.30;;;;;;;17.45;42.57;97210.64;435676;1254;98033;-41
2023/04/14 14:05:41;;;;;;;11.60;4.00;;;;;;;17.30;42.86;97219.25;435813;1253;99215;-40
2023/04/14 14:15:49;;;;;;;9.00;4.20;;;;;;;17.33;43.04;97212.70;435958;1251;111404;-39
2023/04/14 14:25:56;;;;;;;8.40;4.80;;;;;;;17.41;43.06;97211.09;435831;1251;108469;-42
2023/04/14 14:36:03;;;;;;;6.20;4.00;;;;;;;17.34;43.11;97205.11;435804;1251;99215;-42
2023/04/14 14:46:10;;;;;;;5.40;4.20;;;;;;;17.21;43.01;97209.71;435833;1254;108503;-42
2023/04/14 15:06:23;;;;;;;5.60;3.80;;;;;;;17.11;41.68;97204.57;435750;1254;111425;-40
2023/04/14 15:16:30;;;;;;;5.90;4.60;;;;;;;16.92;42.24;97203.80;435861;1251;106380;-42
2023/04/14 15:26:37;;;;;;;5.20;4.30;;;;;;;16.84;42.99;97204.83;435924;1251;98011;-43
2023/04/14 15:46:51;;;;;;;6.60;5.50;;;;;;;16.75;43.26;97215.93;435797;1251;400862;-41
2023/04/14 15:56:58;;;;;;;10.60;6.00;;;;;;;16.69;44.06;97209.49;436127;1255;111282;-43
2023/04/14 16:07:05;;;;;;;9.20;6.60;;;;;;;16.57;44.40;97219.95;436234;1253;107097;-42
2023/04/14 16:17:12;;;;;;;10.40;7.00;;;;;;;16.40;45.07;97221.27;436136;1253;98001;-42
2023/04/14 16:27:20;;;;;;;11.70;7.60;;;;;;;16.23;45.57;97220.01;436184;1253;108669;-41
2023/04/14 16:47:31;;;;;;;9.80;7.60;;;;;;;15.90;46.60;97231.91;436110;1254;110731;-41
2023/04/14 17:07:45;;;;;;;8.80;7.80;;;;;;;15.57;47.58;97230.41;435922;1248;97944;-42
2023/04/14 17:17:53;;;;;;;11.50;8.70;;;;;;;15.38;48.03;97230.80;435924;1252;108789;-41
2023/04/14 17:28:01;;;;;;;12.00;10.30;;;;;;;15.18;49.34;97238.51;435841;1253;99224;-42
2023/04/14 17:38:08;;;;;;;13.60;9.70;;;;;;;14.98;50.51;97241.61;435985;1254;112101;-41
2023/04/14 17:48:16;;;;;;;15.40;10.00;;;;;;;14.80;51.57;97245.67;435969;1253;107493;-41
2023/04/14 17:58:25;;;;;;;15.90;11.50;;;;;;;14.71;52.60;97250.02;435934;1251;99880;-40
2023/04/14 18:08:32;;;;;;;12.10;10.00;;;;;;;14.59;53.15;97259.56;436035;1249;108987;-41
2023/04/14 18:18:40;;;;;;;11.70;9.70;;;;;;;14.48;53.89;97258.46;436047;1253;99082;-41
2023/04/14 18:28:47;;;;;;;11.70;9.40;;;;;;;14.37;54.64;97268.77;435733;1254;111443;-40
2023/04/14 18:38:53;;;;;;;12.30;9.30;;;;;;;14.30;55.59;97273.71;436049;1250;107383;-42
2023/04/14 18:49:00;;;;;;;12.10;8.50;;;;;;;14.20;56.23;97269.28;436077;1250;99858;-42
2023/04/14 18:59:08;;;;;;;17.10;8.90;;;;;;;14.07;57.11;97280.55;435874;1253;107540;-42
2023/04/14 19:19:21;;;;;;;12.20;8.20;;;;;;;13.80;58.92;97286.61;436153;1253;111494;-42
2023/04/14 19:29:27;;;;;;;9.00;6.90;;;;;;;13.66;59.84;97274.85;436056;1248;108525;-41
2023/04/14 19:39:34;;;;;;;14.50;7.40;;;;;;;13.57;60.26;97274.38;436101;1253;98845;-41
2023/04/14 19:59:48;;;;;;;12.90;7.20;;;;;;;13.27;62.11;97280.34;436058;1249;99218;-40
2023/04/14 20:09:55;;;;;;;15.50;8.20;;;;;;;13.11;63.50;97282.04;436044;1251;111187;-42
2023/04/14 20:20:04;;;;;;;13.60;9.30;;;;;;;12.90;64.94;97284.70;435948;1250;108401;-42
2023/04/14 20:30:14;;;;;;;12.30;7.80;;;;;;;12.61;66.83;97287.77;436077;1253;99025;-41
2023/04/14 20:40:19;;;;;;;;;;;;;;;12.25;68.92;97285.16;435940;1252;109227;-41
2023/04/14 20:50:27;;;;;;;13.00;9.20;;;;;;;11.97;70.19;97284.27;435998;1250;99218;-42
2023/04/14 21:00:34;;;;;;;19.80;10.20;;;;;;;11.80;71.97;97295.92;436167;1254;110351;-41
2023/04/14 21:10:41;;;;;;;13.90;10.30;;;;;;;11.60;72.72;97298.45;435853;1248;108278;-41
2023/04/14 21:31:15;;;;;;;20.80;11.70;;;;;;;11.39;75.06;97297.65;435807;1253;108387;-42
2023/04/14 21:41:22;;;;;;;17.10;10.80;;;;;;;11.32;76.59;97288.11;436038;1254;98766;-42
2023/04/14 21:51:29;;;;;;;17.80;11.90;;;;;;;11.25;76.79;97286.70;435863;1256;111548;-41
2023/04/14 22:01:36;;;;;;;16.70;12.20;;;;;;;11.20;77.19;97288.09;435903;1253;110540;-41
2023/04/14 22:21:50;;;;;;;13.70;10.20;;;;;;;11.20;77.19;97308.73;435821;1248;107204;-41
2023/04/14 22:31:57;;;;;;;14.50;10.50;;;;;;;11.20;76.98;97290.89;435972;1252;98826;-41
2023/04/14 22:42:03;;;;;;;19.00;10.90;;;;;;;11.11;77.08;97282.89;437000;1253;111301;-41
2023/04/14 22:52:10;;;;;;;15.00;8.80;;;;;;;11.06;77.98;97286.49;435997;1248;108031;-40
2023/04/14 23:02:17;;;;;;;12.90;8.80;;;;;;;11.00;78.31;97314.54;435983;1251;99279;-41
2023/04/14 23:12:25;;;;;;;13.80;9.80;;;;;;;10.99;78.37;97322.79;436170;1249;108278;-39
2023/04/14 23:32:39;;;;;;;12.40;9.00;;;;;;;10.70;79.10;97328.05;436150;1253;114247;-40
2023/04/14 23:42:46;;;;;;;11.50;8.70;;;;;;;10.63;79.85;97329.09;436273;1248;107615;-41
2023/04/14 23:52:53;;;;;;;14.40;9.50;;;;;;;10.63;79.91;97333.58;436013;1253;99214;-40
